Time;durP1;ratioP1;P1;durP2;ratioP2;P2;SDS_P1;SDS_P2;PMS_P1;PMS_P2;Temp;Humidity;BMP_temperature;BMP_pressure;BME280_temperature;BME280_humidity;BME280_pressure;Samples;Min_cycle;Max_cycle;Signal;HPM_P1;HPM_P2
2021/04/22 00:00:08;;;;;;;11.05;7.45;;;;;;;10.29;59.75;99677.47;4347587;32;20126;-89
2021/04/22 00:02:33;;;;;;;12.80;7.37;;;;;;;10.57;59.77;99680.87;4336552;32;20112;-89
2021/04/22 00:04:59;;;;;;;10.70;7.62;;;;;;;10.53;59.76;99670.63;4361926;32;20181;-88
2021/04/22 00:07:24;;;;;;;12.88;8.23;;;;;;;10.79;59.78;99677.56;4361807;32;20141;-89
2021/04/22 00:09:50;;;;;;;13.43;8.23;;;;;;;10.67;59.77;99677.06;4349359;32;20449;-88
2021/04/22 00:12:16;;;;;;;11.95;8.48;;;;;;;10.65;59.77;99676.28;4363050;32;20091;-88
2021/04/22 00:14:41;;;;;;;10.38;7.80;;;;;;;10.67;59.77;99673.63;4361322;32;20190;-89
2021/04/22 00:17:07;;;;;;;13.55;8.30;;;;;;;10.60;59.76;99670.34;4360642;32;20384;-89
2021/04/22 00:19:33;;;;;;;11.77;7.65;;;;;;;10.63;59.77;99667.66;4348637;32;20170;-88
2021/04/22 00:21:58;;;;;;;11.07;7.65;;;;;;;10.65;59.77;99678.03;4360904;32;20460;-89
2021/04/22 00:24:24;;;;;;;10.32;7.35;;;;;;;10.74;59.77;99672.50;4361688;32;21512;-89
2021/04/22 00:26:49;;;;;;;10.88;7.50;;;;;;;10.77;59.78;99685.41;4360414;32;20142;-89
2021/04/22 00:29:14;;;;;;;13.80;8.15;;;;;;;10.73;59.77;99678.63;4360751;32;20098;-88
2021/04/22 00:31:40;;;;;;;12.25;8.02;;;;;;;10.59;59.77;99673.00;4348299;32;20098;-88
2021/04/22 00:34:05;;;;;;;9.75;7.90;;;;;;;10.56;59.77;99671.38;4348498;32;20127;-88
2021/04/22 00:36:31;;;;;;;12.55;8.20;;;;;;;10.64;59.77;99669.34;4335654;32;20187;-89
2021/04/22 00:38:56;;;;;;;15.50;8.07;;;;;;;10.68;59.77;99673.56;4335918;32;20169;-89
2021/04/22 00:41:21;;;;;;;12.57;8.18;;;;;;;10.73;59.77;99670.81;4347612;32;26170;-89
2021/04/22 00:43:47;;;;;;;14.18;8.45;;;;;;;10.72;59.77;99659.53;4348523;32;20139;-90
2021/04/22 00:46:12;;;;;;;11.85;8.27;;;;;;;10.88;59.78;99667.66;4335893;32;20119;-89
2021/04/22 00:48:38;;;;;;;14.10;8.55;;;;;;;10.89;59.78;99656.38;4347762;32;28749;-89
2021/04/22 00:51:03;;;;;;;13.93;8.32;;;;;;;10.92;59.79;99658.03;4348271;32;20149;-90
2021/04/22 00:53:30;;;;;;;14.87;8.55;;;;;;;10.97;59.78;99645.69;4336192;32;20534;-89
2021/04/22 00:55:55;;;;;;;13.88;7.87;;;;;;;11.20;59.80;99618.81;4348416;32;20134;-89
2021/04/22 00:58:21;;;;;;;11.32;7.87;;;;;;;11.40;59.81;99638.94;4360780;32;20123;-89
2021/04/22 01:00:51;;;;;;;15.65;8.10;;;;;;;11.40;59.81;99628.50;4335865;32;20094;-87
2021/04/22 01:03:16;;;;;;;16.77;8.00;;;;;;;11.57;59.82;99621.72;4360498;32;20103;-88
2021/04/22 01:05:44;;;;;;;13.98;8.35;;;;;;;11.44;59.81;99611.84;4359665;32;29381;-88
2021/04/22 01:08:10;;;;;;;13.27;9.57;;;;;;;11.29;59.80;99611.47;4360575;32;20117;-89
2021/04/22 01:10:36;;;;;;;12.73;9.50;;;;;;;11.29;59.80;99621.91;4360488;32;20102;-88
2021/04/22 01:13:01;;;;;;;11.75;9.07;;;;;;;11.19;59.80;99630.97;4347836;32;20439;-88
2021/04/22 01:15:28;;;;;;;12.73;9.13;;;;;;;11.33;59.81;99633.91;4346207;32;106846;-89
2021/04/22 01:17:54;;;;;;;13.35;8.23;;;;;;;11.52;59.81;99641.06;4361441;32;20091;-89
2021/04/22 01:20:21;;;;;;;12.52;8.38;;;;;;;11.36;59.80;99644.25;4361199;32;20122;-89
2021/04/22 01:22:47;;;;;;;14.35;8.25;;;;;;;11.21;59.80;99652.63;4361320;32;20091;-89
2021/04/22 01:25:15;;;;;;;14.20;8.38;;;;;;;11.23;59.80;99648.19;4361360;32;20154;-89
2021/04/22 01:27:40;;;;;;;12.77;8.68;;;;;;;11.23;59.80;99658.63;4348757;32;20583;-89
2021/04/22 01:30:12;;;;;;;12.23;7.80;;;;;;;11.44;59.81;99653.53;4362721;32;20129;-89
2021/04/22 01:32:37;;;;;;;12.98;7.93;;;;;;;11.24;59.80;99660.31;4349392;32;20099;-88
2021/04/22 01:35:12;;;;;;;11.98;8.82;;;;;;;11.05;59.79;99656.66;4362707;32;20709;-88
2021/04/22 01:37:37;;;;;;;12.75;8.48;;;;;;;11.23;59.80;99644.75;4348772;32;20096;-88
2021/04/22 01:40:04;;;;;;;12.07;8.27;;;;;;;11.23;59.80;99643.00;4361295;32;20109;-88
2021/04/22 01:42:29;;;;;;;12.88;8.73;;;;;;;11.31;59.81;99640.09;4348789;32;20125;-87
2021/04/22 01:44:55;;;;;;;11.85;7.93;;;;;;;11.31;59.81;99647.91;4362313;32;20150;-88
2021/04/22 01:47:20;;;;;;;12.65;8.45;;;;;;;11.40;59.82;99641.53;4348326;32;21067;-88
2021/04/22 01:49:45;;;;;;;12.98;8.13;;;;;;;11.33;59.81;99641.72;4362066;32;20127;-88
2021/04/22 01:52:11;;;;;;;10.75;8.20;;;;;;;11.33;59.81;99643.50;4360841;32;20745;-88
2021/04/22 01:54:36;;;;;;;11.63;8.40;;;;;;;11.38;59.82;99642.44;4336247;32;20573;-87
2021/04/22 01:57:02;;;;;;;11.85;8.93;;;;;;;11.57;59.82;99645.19;4336144;32;20218;-88
2021/04/22 01:59:27;;;;;;;18.92;8.77;;;;;;;11.67;59.83;99643.94;4361176;32;20115;-88
2021/04/22 02:01:53;;;;;;;15.10;9.20;;;;;;;11.68;59.83;99636.97;4348681;32;20420;-90
2021/04/22 02:04:18;;;;;;;14.40;10.27;;;;;;;11.65;59.83;99637.94;4336190;32;20170;-88
2021/04/22 02:06:44;;;;;;;16.17;10.57;;;;;;;11.63;59.83;99639.75;4360817;32;20145;-88
2021/04/22 02:09:09;;;;;;;15.02;9.65;;;;;;;11.73;59.83;99636.78;4360860;32;20091;-88
2021/04/22 02:11:34;;;;;;;12.45;9.20;;;;;;;11.71;59.83;99639.47;4348560;32;20178;-88
2021/04/22 02:14:00;;;;;;;14.07;10.13;;;;;;;11.74;59.82;99647.16;4335269;32;28541;-88
2021/04/22 02:16:26;;;;;;;13.75;9.98;;;;;;;11.89;59.84;99632.72;4348520;32;20145;-89
2021/04/22 02:18:51;;;;;;;14.43;10.38;;;;;;;11.82;59.83;99639.06;4348313;32;20111;-89
2021/04/22 02:21:17;;;;;;;15.15;9.52;;;;;;;11.75;59.83;99641.03;4335917;32;20145;-88
2021/04/22 02:23:42;;;;;;;14.35;9.85;;;;;;;11.85;59.84;99634.59;4348134;32;20149;-88
2021/04/22 02:26:07;;;;;;;11.90;9.02;;;;;;;11.57;59.82;99632.16;4359713;32;31665;-88
2021/04/22 02:28:34;;;;;;;12.60;9.82;;;;;;;11.74;59.83;99635.87;4347909;32;26313;-88
2021/04/22 02:30:59;;;;;;;13.52;9.95;;;;;;;11.74;59.82;99631.50;4348323;32;20111;-88
2021/04/22 02:33:24;;;;;;;15.30;10.20;;;;;;;11.64;59.82;99636.25;4360530;32;20121;-89
2021/04/22 02:35:50;;;;;;;14.20;9.85;;;;;;;11.76;59.83;99634.91;4360308;32;20099;-88
2021/04/22 02:38:16;;;;;;;11.55;8.50;;;;;;;11.99;59.84;99627.06;4360562;32;20135;-88
2021/04/22 02:40:42;;;;;;;13.27;9.70;;;;;;;11.90;59.85;99635.28;4348366;32;20682;-88
2021/04/22 02:43:09;;;;;;;12.98;8.63;;;;;;;11.64;59.82;99630.19;4348476;32;20103;-88
2021/04/22 02:45:37;;;;;;;11.32;8.43;;;;;;;11.65;59.82;99621.44;4336277;32;20163;-90
2021/04/22 02:48:03;;;;;;;12.25;8.27;;;;;;;11.74;59.82;99628.91;4360756;32;20091;-91
2021/04/22 02:50:32;;;;;;;11.40;8.38;;;;;;;11.65;59.82;99618.84;4348594;32;20145;-90
2021/04/22 02:52:58;;;;;;;14.02;8.55;;;;;;;11.68;59.83;99621.31;4348572;32;20566;-89
2021/04/22 02:55:23;;;;;;;12.20;8.20;;;;;;;11.49;59.81;99625.53;4348160;32;20111;-88
2021/04/22 02:57:49;;;;;;;15.27;8.65;;;;;;;11.50;59.81;99622.88;4360295;32;22279;-91
2021/04/22 03:00:19;;;;;;;14.10;8.55;;;;;;;11.30;59.80;99627.97;4336375;32;20161;-91
2021/04/22 03:02:44;;;;;;;;;;;;;;;11.31;59.81;99625.31;4361169;32;20111;-90
2021/04/22 03:05:10;;;;;;;11.23;7.90;;;;;;;11.22;59.81;99628.25;4348582;32;19974;-91
2021/04/22 03:07:35;;;;;;;13.57;8.35;;;;;;;11.34;59.81;99635.63;4348813;32;20134;-91
2021/04/22 03:10:01;;;;;;;11.57;8.63;;;;;;;11.07;59.79;99623.59;4335608;32;20166;-90
2021/04/22 03:12:26;;;;;;;11.60;8.15;;;;;;;11.13;59.79;99607.78;4347970;32;20373;-90
2021/04/22 03:14:52;;;;;;;12.85;8.57;;;;;;;11.02;59.79;99605.53;4335992;32;20180;-90
2021/04/22 03:17:17;;;;;;;12.27;7.95;;;;;;;11.02;59.80;99613.34;4336395;32;20118;-90
2021/04/22 03:19:43;;;;;;;11.50;7.53;;;;;;;11.01;59.79;99621.22;4335558;32;20150;-89
2021/04/22 03:22:08;;;;;;;11.00;7.50;;;;;;;11.06;59.79;99620.13;4347630;32;20174;-90
2021/04/22 03:24:34;;;;;;;13.18;7.75;;;;;;;11.07;59.79;99621.00;4347661;32;20764;-90
2021/04/22 03:26:59;;;;;;;10.65;7.47;;;;;;;10.98;59.78;99631.75;4335365;32;24431;-89
2021/04/22 03:29:24;;;;;;;12.57;7.68;;;;;;;10.86;59.78;99634.78;4335844;32;20130;-90
2021/04/22 03:31:50;;;;;;;13.38;7.70;;;;;;;10.84;59.77;99634.81;4347835;32;20182;-90
2021/04/22 03:34:15;;;;;;;13.27;7.45;;;;;;;10.72;59.77;99632.66;4348345;32;20540;-90
2021/04/22 03:36:41;;;;;;;10.68;6.93;;;;;;;10.87;59.78;99634.72;4335048;32;26104;-91
2021/04/22 03:39:06;;;;;;;9.93;7.00;;;;;;;10.58;59.77;99627.91;4334997;32;35729;-91
2021/04/22 03:41:32;;;;;;;9.73;6.90;;;;;;;10.59;59.76;99627.00;4336409;32;20226;-91
2021/04/22 03:43:57;;;;;;;8.93;6.10;;;;;;;10.40;59.76;99626.78;4348357;32;20162;-91
2021/04/22 03:46:23;;;;;;;12.07;7.47;;;;;;;10.50;59.76;99629.94;4360633;32;20341;-91
2021/04/22 03:48:49;;;;;;;10.90;6.95;;;;;;;10.40;59.76;99639.78;4336385;32;20142;-90
2021/04/22 03:51:14;;;;;;;12.52;7.50;;;;;;;10.49;59.76;99641.25;4336030;32;20119;-92
2021/04/22 03:53:40;;;;;;;11.15;7.30;;;;;;;10.34;59.75;99629.59;4336530;32;20506;-92
2021/04/22 03:56:05;;;;;;;13.00;7.82;;;;;;;10.44;59.76;99650.97;4336529;32;20142;-90
2021/04/22 03:58:31;;;;;;;10.98;8.05;;;;;;;10.25;59.75;99660.25;4336094;32;20131;-92
2021/04/22 04:00:56;;;;;;;12.32;8.18;;;;;;;10.18;59.75;99653.53;4360867;32;20147;-91
2021/04/22 04:03:21;;;;;;;11.57;8.68;;;;;;;9.99;59.73;99648.91;4348550;32;20129;-90
2021/04/22 04:05:47;;;;;;;13.05;8.75;;;;;;;10.11;59.74;99653.69;4348589;32;20086;-92
2021/04/22 04:08:12;;;;;;;11.80;8.18;;;;;;;9.95;59.73;99647.31;4336176;32;20169;-92
2021/04/22 04:10:40;;;;;;;12.05;8.80;;;;;;;9.93;59.73;99646.47;4336107;32;20123;-91
2021/04/22 04:13:06;;;;;;;11.43;7.72;;;;;;;10.07;59.74;99640.84;4336917;32;20117;-92
2021/04/22 04:15:31;;;;;;;12.32;7.80;;;;;;;10.02;59.73;99647.97;4335824;32;20142;-90
2021/04/22 04:17:56;;;;;;;10.77;7.65;;;;;;;10.24;59.75;99638.59;4334472;32;20619;-90
2021/04/22 04:20:22;;;;;;;13.50;8.68;;;;;;;10.35;59.76;99648.66;4335496;32;21119;-90
2021/04/22 04:22:48;;;;;;;16.30;10.52;;;;;;;10.42;59.76;99652.78;4334740;32;20122;-88
2021/04/22 04:25:13;;;;;;;19.75;11.88;;;;;;;10.37;59.75;99655.50;4359479;32;20095;-88
2021/04/22 04:27:39;;;;;;;16.92;12.60;;;;;;;10.35;59.75;99657.31;4347033;32;20679;-90
2021/04/22 04:30:05;;;;;;;17.33;10.77;;;;;;;10.44;59.76;99662.22;4346514;32;24855;-88
2021/04/22 04:32:31;;;;;;;15.05;11.05;;;;;;;10.75;59.77;99669.84;4359475;32;20471;-90
2021/04/22 04:34:56;;;;;;;15.23;10.63;;;;;;;10.69;59.77;99664.00;4346645;32;26362;-90
2021/04/22 04:37:21;;;;;;;14.50;8.90;;;;;;;10.85;59.79;99675.59;4359030;32;20167;-88
2021/04/22 04:39:48;;;;;;;16.12;9.05;;;;;;;10.94;59.79;99671.84;4334303;32;23044;-88
2021/04/22 04:42:13;;;;;;;12.32;8.45;;;;;;;11.06;59.78;99672.25;4347207;32;20094;-88
2021/04/22 04:44:39;;;;;;;13.32;7.62;;;;;;;11.29;59.80;99681.00;4360512;32;20129;-88
2021/04/22 04:47:04;;;;;;;13.65;8.60;;;;;;;11.44;59.81;99688.25;4346640;32;20146;-88
2021/04/22 04:49:30;;;;;;;21.30;10.02;;;;;;;11.58;59.82;99693.81;4349275;32;20130;-88
2021/04/22 04:51:55;;;;;;;17.00;8.30;;;;;;;11.63;59.83;99689.28;4361651;32;20149;-88
2021/04/22 04:54:20;;;;;;;15.65;8.45;;;;;;;11.79;59.84;99699.16;4335831;32;33134;-88
2021/04/22 04:56:46;;;;;;;12.75;8.23;;;;;;;11.60;59.83;99699.00;4349076;32;20155;-89
2021/04/22 04:59:11;;;;;;;13.70;8.52;;;;;;;11.70;59.83;99702.94;4361387;32;20162;-88
2021/04/22 05:01:37;;;;;;;13.55;8.77;;;;;;;11.95;59.84;99703.75;4348900;32;20111;-88
2021/04/22 05:04:03;;;;;;;11.23;7.53;;;;;;;12.08;59.85;99701.53;4349010;32;20118;-89
2021/04/22 05:06:29;;;;;;;10.73;7.45;;;;;;;12.30;59.86;99698.91;4336646;32;20520;-88
2021/04/22 05:08:54;;;;;;;14.57;8.05;;;;;;;12.39;59.87;99701.16;4360623;32;25134;-89
2021/04/22 05:11:19;;;;;;;11.75;8.20;;;;;;;12.50;59.87;99692.88;4335840;32;35123;-89
2021/04/22 05:13:45;;;;;;;13.98;8.32;;;;;;;12.65;59.87;99702.72;4348732;32;20107;-86
2021/04/22 05:16:11;;;;;;;11.77;7.75;;;;;;;12.90;59.89;99702.53;4361174;32;20193;-89
2021/04/22 05:18:36;;;;;;;12.65;8.88;;;;;;;13.29;59.91;99707.00;4348999;32;20107;-88
2021/04/22 05:21:02;;;;;;;15.18;8.77;;;;;;;13.44;59.92;99703.69;4336585;32;20429;-88
2021/04/22 05:23:27;;;;;;;13.20;8.07;;;;;;;13.49;59.93;99699.16;4348845;32;20155;-88
2021/04/22 05:25:54;;;;;;;15.52;9.48;;;;;;;13.62;59.93;99699.41;4360898;32;20177;-88
2021/04/22 05:28:20;;;;;;;11.25;8.40;;;;;;;13.81;59.94;99697.66;4349219;32;20112;-88
2021/04/22 05:30:46;;;;;;;14.90;9.15;;;;;;;14.05;59.96;99693.06;4348946;32;20521;-89
2021/04/22 05:33:12;;;;;;;11.57;8.25;;;;;;;14.09;59.96;99695.47;4348806;32;20094;-89
2021/04/22 05:35:37;;;;;;;11.30;8.65;;;;;;;14.30;59.96;99688.34;4336327;32;20130;-88
2021/04/22 05:38:03;;;;;;;11.55;7.68;;;;;;;14.55;59.98;99685.41;4362519;32;20164;-88
2021/04/22 05:40:28;;;;;;;13.45;9.02;;;;;;;14.66;59.99;99688.34;4361186;32;20090;-89
2021/04/22 05:42:53;;;;;;;15.90;10.10;;;;;;;14.84;60.00;99686.59;4348720;32;20154;-89
2021/04/22 05:45:19;;;;;;;13.35;9.32;;;;;;;14.84;59.99;99686.59;4348356;32;20107;-89
2021/04/22 05:47:45;;;;;;;15.15;9.10;;;;;;;14.74;60.00;99687.97;4360293;32;33056;-88
2021/04/22 05:50:11;;;;;;;14.85;9.63;;;;;;;14.93;60.00;99678.28;4362539;32;20091;-88
2021/04/22 05:52:37;;;;;;;13.70;8.93;;;;;;;15.04;60.01;99678.56;4349130;32;20118;-88
2021/04/22 05:55:03;;;;;;;13.27;9.23;;;;;;;15.09;60.00;99678.31;4348372;32;20740;-88
2021/04/22 05:57:29;;;;;;;13.38;9.13;;;;;;;15.31;60.03;99676.28;4348894;32;20495;-88
2021/04/22 05:59:54;;;;;;;13.13;8.10;;;;;;;15.32;60.01;99683.22;4347510;32;20111;-89
2021/04/22 06:02:20;;;;;;;13.48;8.60;;;;;;;15.40;60.03;99689.84;4348091;32;27019;-88
2021/04/22 06:04:45;;;;;;;13.60;8.98;;;;;;;15.44;60.03;99681.72;4348796;32;20119;-88
2021/04/22 06:07:11;;;;;;;13.30;8.88;;;;;;;15.26;60.02;99688.78;4348376;32;20106;-89
2021/04/22 06:09:37;;;;;;;11.77;8.98;;;;;;;15.38;60.02;99689.06;4348048;32;20185;-88
2021/04/22 06:12:05;;;;;;;12.00;8.30;;;;;;;15.50;60.04;99685.81;4362246;32;20145;-88
2021/04/22 06:14:31;;;;;;;11.38;8.48;;;;;;;15.62;60.03;99693.06;4348646;32;20115;-88
2021/04/22 06:16:56;;;;;;;13.70;8.10;;;;;;;15.74;60.04;99697.63;4348569;32;20503;-89
2021/04/22 06:19:21;;;;;;;13.77;8.70;;;;;;;15.84;60.05;99697.97;4360965;32;20137;-89
2021/04/22 06:21:47;;;;;;;16.20;10.25;;;;;;;15.75;60.05;99701.13;4360290;32;26725;-88
2021/04/22 06:24:12;;;;;;;13.02;10.00;;;;;;;15.84;60.04;99705.84;4348148;32;20171;-89
2021/04/22 06:26:38;;;;;;;16.62;10.80;;;;;;;15.71;60.04;99702.22;4348183;32;20122;-89
2021/04/22 06:29:04;;;;;;;15.18;10.75;;;;;;;15.74;60.05;99709.91;4347251;32;20107;-88
2021/04/22 06:31:30;;;;;;;16.17;10.60;;;;;;;15.47;60.02;99704.34;4336257;32;20239;-86
2021/04/22 06:33:55;;;;;;;21.05;11.27;;;;;;;15.55;60.04;99702.13;4347448;32;30831;-87
2021/04/22 06:36:21;;;;;;;20.52;11.00;;;;;;;15.82;60.05;99710.34;4360377;32;20111;-88
2021/04/22 06:38:47;;;;;;;17.75;10.77;;;;;;;15.63;60.05;99718.37;4360612;32;20109;-88
2021/04/22 06:41:12;;;;;;;19.70;10.85;;;;;;;15.60;60.04;99708.84;4347282;32;20142;-86
2021/04/22 06:43:37;;;;;;;16.20;10.40;;;;;;;15.71;60.05;99705.69;4359463;32;21294;-87
2021/04/22 06:46:03;;;;;;;14.90;9.70;;;;;;;15.89;60.05;99709.94;4359178;32;20202;-88
2021/04/22 06:48:28;;;;;;;13.65;9.32;;;;;;;15.96;60.06;99705.19;4335616;32;20133;-86
2021/04/22 06:50:54;;;;;;;13.10;8.23;;;;;;;16.22;60.07;99707.22;4335632;32;20119;-89
2021/04/22 06:53:19;;;;;;;12.63;8.55;;;;;;;16.09;60.07;99700.97;4348138;32;20126;-86
2021/04/22 06:55:45;;;;;;;11.95;8.13;;;;;;;15.86;60.04;99707.50;4360267;32;21299;-87
2021/04/22 06:58:10;;;;;;;13.98;8.07;;;;;;;15.86;60.06;99702.25;4348271;32;20440;-87
2021/04/22 07:00:37;;;;;;;13.70;8.85;;;;;;;15.83;60.05;99707.62;4361983;32;20094;-87
2021/04/22 07:03:03;;;;;;;15.52;9.50;;;;;;;15.91;60.05;99712.47;4360889;32;20137;-85
2021/04/22 07:05:29;;;;;;;14.48;7.90;;;;;;;15.99;60.05;99710.28;4348172;32;20485;-88
2021/04/22 07:07:54;;;;;;;14.13;8.60;;;;;;;16.15;60.06;99705.88;4348160;32;20133;-88
2021/04/22 07:10:20;;;;;;;12.95;9.40;;;;;;;16.17;60.07;99705.78;4334957;32;20417;-88
2021/04/22 07:12:45;;;;;;;14.70;8.50;;;;;;;16.39;60.08;99710.69;4347034;32;20179;-87
2021/04/22 07:15:13;;;;;;;12.88;8.80;;;;;;;16.31;60.08;99711.09;4347114;32;20168;-87
2021/04/22 07:17:39;;;;;;;17.52;8.43;;;;;;;16.39;60.08;99710.69;4359539;32;20090;-88
2021/04/22 07:20:10;;;;;;;13.65;8.82;;;;;;;16.57;60.09;99714.91;4360865;32;20125;-88
2021/04/22 07:22:36;;;;;;;12.35;8.82;;;;;;;16.56;60.09;99710.56;4359594;32;20108;-87
2021/04/22 07:25:02;;;;;;;12.98;8.85;;;;;;;16.55;60.09;99716.75;4359586;32;20173;-89
2021/04/22 07:27:28;;;;;;;12.00;8.43;;;;;;;16.79;60.11;99717.16;4347169;32;20106;-87
2021/04/22 07:29:53;;;;;;;16.35;9.27;;;;;;;17.06;60.11;99705.06;4347320;32;20114;-88
2021/04/22 07:32:20;;;;;;;13.27;8.90;;;;;;;17.25;60.13;99704.78;4346807;32;20190;-88
2021/04/22 07:34:46;;;;;;;16.83;10.32;;;;;;;17.42;60.14;99707.25;4359486;32;20115;-87
2021/04/22 07:37:12;;;;;;;21.15;10.50;;;;;;;17.66;60.15;99712.78;4359548;32;20126;-87
2021/04/22 07:39:37;;;;;;;13.57;9.43;;;;;;;17.91;60.16;99712.13;4334705;32;20113;-86
2021/04/22 07:42:03;;;;;;;17.77;10.13;;;;;;;18.08;60.17;99711.94;4346632;32;23597;-88
2021/04/22 07:44:28;;;;;;;12.80;9.60;;;;;;;18.19;60.18;99708.59;4360543;32;20122;-89
2021/04/22 07:46:53;;;;;;;16.35;9.95;;;;;;;18.36;60.18;99700.47;4327059;32;20419;-88
2021/04/22 07:49:19;;;;;;;11.80;8.35;;;;;;;18.34;60.18;99709.41;4333605;32;28945;-88
2021/04/22 07:51:44;;;;;;;14.90;10.10;;;;;;;18.19;60.18;99718.28;4359850;32;26815;-86
2021/04/22 07:54:10;;;;;;;14.87;10.07;;;;;;;18.23;60.18;99719.81;4358700;32;20203;-87
2021/04/22 07:56:36;;;;;;;12.30;9.73;;;;;;;18.38;60.20;99714.38;4346662;32;20215;-87
2021/04/22 07:59:02;;;;;;;14.07;9.77;;;;;;;18.36;60.18;99710.16;4358909;32;20162;-86
2021/04/22 08:01:28;;;;;;;15.65;9.70;;;;;;;18.21;60.18;99706.72;4346692;32;20118;-87
2021/04/22 08:03:53;;;;;;;14.25;9.40;;;;;;;18.40;60.19;99709.84;4346333;32;20468;-87
2021/04/22 08:06:19;;;;;;;12.20;9.00;;;;;;;18.54;60.20;99706.34;4346827;32;22562;-87
2021/04/22 08:08:44;;;;;;;12.80;9.73;;;;;;;18.81;60.21;99700.22;4347219;32;20098;-85
2021/04/22 08:11:09;;;;;;;14.55;9.57;;;;;;;18.94;60.22;99707.22;4347336;32;20350;-85
2021/04/22 08:13:37;;;;;;;14.85;9.63;;;;;;;19.25;60.24;99705.13;4360660;32;20111;-85
2021/04/22 08:16:02;;;;;;;12.65;9.07;;;;;;;19.58;60.25;99699.34;4359419;32;20459;-86
2021/04/22 08:18:28;;;;;;;15.25;9.20;;;;;;;19.82;60.26;99700.25;4347294;32;20135;-86
2021/04/22 08:20:56;;;;;;;13.27;9.48;;;;;;;19.74;60.25;99696.47;4334687;32;20129;-85
2021/04/22 08:23:21;;;;;;;13.05;8.95;;;;;;;19.69;60.25;99702.09;4348343;32;20118;-85
2021/04/22 08:25:49;;;;;;;12.35;8.52;;;;;;;20.07;60.27;99693.22;4348896;32;20126;-85
2021/04/22 08:28:15;;;;;;;15.05;10.32;;;;;;;20.34;60.29;99700.94;4362987;32;20194;-85
2021/04/22 08:30:47;;;;;;;14.18;9.10;;;;;;;20.58;60.30;99698.31;4361696;32;20106;-85
2021/04/22 08:33:13;;;;;;;12.23;9.75;;;;;;;20.67;60.31;99690.56;4362740;32;20117;-85
2021/04/22 08:35:39;;;;;;;13.98;10.27;;;;;;;20.81;60.32;99702.75;4349169;32;20110;-85
2021/04/22 08:38:04;;;;;;;12.98;10.10;;;;;;;20.99;60.32;99692.56;4361204;32;20486;-85
2021/04/22 08:40:30;;;;;;;13.57;9.98;;;;;;;20.91;60.32;99693.16;4362689;32;20099;-85
2021/04/22 08:42:56;;;;;;;13.20;10.07;;;;;;;20.90;60.32;99696.78;4349182;32;20124;-86
2021/04/22 08:45:22;;;;;;;12.55;9.90;;;;;;;21.06;60.33;99699.94;4362462;32;20134;-85
2021/04/22 08:47:47;;;;;;;16.12;11.73;;;;;;;21.07;60.33;99696.34;4349030;32;20098;-84
2021/04/22 08:50:15;;;;;;;18.12;11.18;;;;;;;21.16;60.33;99694.78;4349347;32;20210;-84
2021/04/22 08:52:41;;;;;;;12.68;9.73;;;;;;;20.88;60.32;99705.78;4349025;32;20099;-85
2021/04/22 08:55:07;;;;;;;12.63;10.23;;;;;;;20.84;60.31;99694.59;4348902;32;20150;-85
2021/04/22 08:57:32;;;;;;;15.65;10.45;;;;;;;21.01;60.33;99695.94;4361359;32;20079;-85
2021/04/22 08:59:58;;;;;;;15.68;11.73;;;;;;;21.45;60.35;99687.28;4361223;32;20207;-85
2021/04/22 09:02:23;;;;;;;14.15;11.85;;;;;;;21.69;60.36;99685.34;4348849;32;20127;-85
2021/04/22 09:04:49;;;;;;;13.18;10.57;;;;;;;21.96;60.38;99692.06;4335870;32;22520;-86
2021/04/22 09:07:15;;;;;;;13.02;11.00;;;;;;;21.98;60.37;99690.13;4362218;32;20118;-86
2021/04/22 09:09:40;;;;;;;13.57;10.60;;;;;;;22.14;60.38;99682.66;4348700;32;20145;-85
2021/04/22 09:12:20;;;;;;;16.10;11.82;;;;;;;22.20;60.39;99684.81;4348574;32;20143;-85
2021/04/22 09:15:00;;;;;;;13.00;10.93;;;;;;;22.54;60.41;99685.56;4336502;32;20162;-85
2021/04/22 09:17:25;;;;;;;11.93;10.05;;;;;;;22.43;60.40;99679.44;4348854;32;20126;-87
2021/04/22 09:19:52;;;;;;;14.00;11.15;;;;;;;22.30;60.39;99683.13;4361279;32;20164;-85
2021/04/22 09:22:17;;;;;;;15.25;11.57;;;;;;;22.11;60.39;99688.22;4360913;32;20133;-85
2021/04/22 09:24:43;;;;;;;16.12;11.52;;;;;;;22.00;60.38;99693.50;4361163;32;20123;-85
2021/04/22 09:27:14;;;;;;;13.50;9.57;;;;;;;22.01;60.38;99681.97;4348520;32;20142;-85
2021/04/22 09:29:45;;;;;;;13.95;9.50;;;;;;;21.99;60.38;99691.81;4349275;32;20695;-85
2021/04/22 09:32:23;;;;;;;11.77;9.20;;;;;;;22.18;60.39;99684.09;4362312;32;20098;-85
2021/04/22 09:34:50;;;;;;;14.60;9.98;;;;;;;22.18;60.38;99680.59;4360821;32;20164;-86
2021/04/22 09:37:15;;;;;;;12.32;8.80;;;;;;;22.40;60.41;99677.88;4348360;32;20113;-86
2021/04/22 09:39:41;;;;;;;12.02;9.45;;;;;;;22.34;60.40;99687.19;4348512;32;20118;-86
2021/04/22 09:42:11;;;;;;;17.12;10.15;;;;;;;22.50;60.41;99680.66;4360597;32;21486;-85
2021/04/22 09:44:37;;;;;;;12.00;9.18;;;;;;;22.60;60.42;99673.59;4361190;32;20158;-84
2021/04/22 09:47:17;;;;;;;15.07;11.63;;;;;;;22.86;60.43;99676.75;4362454;32;20138;-84
2021/04/22 09:49:48;;;;;;;11.83;9.53;;;;;;;23.02;60.43;99673.66;4349047;32;20134;-85
2021/04/22 09:52:16;;;;;;;10.10;6.85;;;;;;;23.06;60.44;99670.63;4348697;32;20141;-86
2021/04/22 09:54:44;;;;;;;10.45;7.80;;;;;;;22.88;60.43;99670.34;4362193;32;20522;-85
2021/04/22 09:57:12;;;;;;;14.18;7.93;;;;;;;22.90;60.43;99675.53;4360714;32;20091;-84
2021/04/22 09:59:42;;;;;;;11.00;8.38;;;;;;;23.04;60.44;99672.56;4360621;32;20382;-84
2021/04/22 10:02:07;;;;;;;11.65;8.15;;;;;;;23.10;60.44;99669.38;4360843;32;20377;-85
2021/04/22 10:04:47;;;;;;;11.00;8.32;;;;;;;23.19;60.45;99665.13;4362352;32;20202;-84
2021/04/22 10:07:29;;;;;;;12.32;8.90;;;;;;;23.39;60.46;99660.72;4361251;32;20095;-85
2021/04/22 10:09:57;;;;;;;11.12;8.60;;;;;;;23.12;60.45;99656.81;4348809;32;20148;-84
2021/04/22 10:12:30;;;;;;;11.70;8.82;;;;;;;23.27;60.45;99655.50;4360921;32;20115;-85
2021/04/22 10:14:56;;;;;;;14.00;10.77;;;;;;;23.10;60.44;99652.59;4348985;32;20177;-84
2021/04/22 10:17:25;;;;;;;11.02;8.00;;;;;;;23.10;60.44;99656.09;4348131;32;22105;-85
2021/04/22 10:20:01;;;;;;;11.07;8.85;;;;;;;23.18;60.44;99658.09;4336005;32;20142;-85
2021/04/22 10:22:37;;;;;;;13.07;8.10;;;;;;;23.35;60.44;99654.00;4360796;32;20123;-83
2021/04/22 10:25:08;;;;;;;11.50;6.70;;;;;;;22.83;60.43;99648.66;4360707;32;20090;-85
2021/04/22 10:27:33;;;;;;;7.62;5.85;;;;;;;22.38;60.41;99666.56;4361604;32;20153;-85
2021/04/22 10:29:58;;;;;;;12.50;7.60;;;;;;;22.23;60.40;99652.75;4361946;32;20114;-84
2021/04/22 10:32:24;;;;;;;10.00;7.18;;;;;;;22.43;60.41;99653.75;4360253;32;20114;-85
2021/04/22 10:34:53;;;;;;;10.45;7.50;;;;;;;22.34;60.41;99658.03;4335861;32;20137;-84
2021/04/22 10:37:19;;;;;;;10.20;7.18;;;;;;;22.39;60.41;99654.16;4361915;32;20178;-84
2021/04/22 10:39:45;;;;;;;8.40;5.12;;;;;;;22.25;60.40;99648.19;4348144;32;20114;-85
2021/04/22 10:42:11;;;;;;;10.57;6.45;;;;;;;22.36;60.41;99656.09;4335666;32;20137;-85
2021/04/22 10:44:37;;;;;;;8.77;6.75;;;;;;;22.35;60.41;99650.91;4347760;32;20190;-85
2021/04/22 10:47:03;;;;;;;11.55;7.95;;;;;;;22.34;60.41;99643.94;4347211;32;20170;-85
2021/04/22 10:49:28;;;;;;;18.95;10.73;;;;;;;22.68;60.43;99639.31;4360464;32;20608;-86
2021/04/22 10:51:53;;;;;;;10.73;7.45;;;;;;;22.83;60.43;99640.72;4359777;32;25545;-85
2021/04/22 10:54:19;;;;;;;8.00;4.70;;;;;;;22.63;60.43;99647.66;4361835;32;20129;-85
2021/04/22 10:56:46;;;;;;;12.68;6.25;;;;;;;22.21;60.40;99651.19;4347560;32;20107;-85
2021/04/22 10:59:21;;;;;;;8.70;6.03;;;;;;;21.93;60.38;99650.75;4361581;32;20129;-85
2021/04/22 11:01:47;;;;;;;8.35;6.12;;;;;;;21.58;60.37;99663.34;4360477;32;20218;-85
2021/04/22 11:04:12;;;;;;;13.73;7.72;;;;;;;21.28;60.35;99656.78;4361469;32;20814;-84
2021/04/22 11:06:39;;;;;;;12.15;7.60;;;;;;;21.00;60.33;99650.13;4360017;32;20145;-85
2021/04/22 11:09:20;;;;;;;13.82;8.13;;;;;;;20.92;60.33;99641.09;4347773;32;20115;-86
2021/04/22 11:12:12;;;;;;;10.25;8.45;;;;;;;20.67;60.32;99653.53;4348269;32;20720;-85
2021/04/22 11:14:39;;;;;;;10.10;8.07;;;;;;;20.42;60.31;99649.22;4356279;32;20396;-85
2021/04/22 11:17:05;;;;;;;8.48;6.15;;;;;;;20.38;60.31;99647.75;4360166;32;20178;-85
2021/04/22 11:19:36;;;;;;;4.85;3.30;;;;;;;20.40;60.31;99648.50;4347913;32;20099;-85